Time;durP1;ratioP1;P1;durP2;ratioP2;P2;SDS_P1;SDS_P2;PMS_P1;PMS_P2;Temp;Humidity;BMP_temperature;BMP_pressure;BME280_temperature;BME280_humidity;BME280_pressure;Samples;Min_cycle;Max_cycle;Signal;HPM_P1;HPM_P2
2021/07/24 00:01:36;;;;;;;25.05;20.75;;;;;;;;;;6143969;28;20046;-65
2021/07/24 00:04:37;;;;;;;;;;;;;;;;;;6167980;28;20475;-64
2021/07/24 00:07:38;;;;;;;25.92;21.23;;;;;;;;;;6138962;28;20412;-64
2021/07/24 00:10:41;;;;;;;33.78;22.88;;;;;;;;;;6138915;28;20043;-64
2021/07/24 00:13:43;;;;;;;31.60;22.50;;;;;;;;;;6149991;28;20111;-64
2021/07/24 00:16:45;;;;;;;33.60;22.92;;;;;;;;;;6125005;28;20518;-69
2021/07/24 00:19:47;;;;;;;56.10;23.25;;;;;;;;;;6156227;28;20082;-67
2021/07/24 00:22:48;;;;;;;28.75;20.73;;;;;;;;;;6144834;28;20053;-65
2021/07/24 00:25:50;;;;;;;28.67;20.73;;;;;;;;;;6147030;28;20055;-64
2021/07/24 00:28:52;;;;;;;26.45;22.25;;;;;;;;;;6154896;28;20257;-66
2021/07/24 00:31:55;;;;;;;27.92;22.55;;;;;;;;;;6134765;28;20070;-66
2021/07/24 00:34:56;;;;;;;31.38;24.25;;;;;;;;;;6145065;28;20069;-65
2021/07/24 00:37:58;;;;;;;29.52;24.67;;;;;;;;;;6137373;28;20608;-65
2021/07/24 00:41:02;;;;;;;31.00;24.15;;;;;;;;;;6145682;28;20043;-64
2021/07/24 00:44:04;;;;;;;35.30;24.75;;;;;;;;;;6151569;28;20415;-65
2021/07/24 00:47:08;;;;;;;32.20;24.13;;;;;;;;;;6133311;28;20043;-65
2021/07/24 00:50:13;;;;;;;33.35;26.45;;;;;;;;;;6144796;28;20043;-69
2021/07/24 00:53:21;;;;;;;33.42;25.92;;;;;;;;;;6145715;28;20172;-64
2021/07/24 00:56:25;;;;;;;34.88;25.45;;;;;;;;;;6141595;28;20403;-64
2021/07/24 00:59:26;;;;;;;31.13;26.35;;;;;;;;;;6155440;28;20078;-65
2021/07/24 01:02:29;;;;;;;38.90;25.58;;;;;;;;;;6131060;28;20130;-64
2021/07/24 01:05:33;;;;;;;;;;;;;;;;;;6134783;28;20204;-67
2021/07/24 01:08:37;;;;;;;33.60;26.80;;;;;;;;;;6149402;28;19930;-64
2021/07/24 01:11:38;;;;;;;34.42;25.55;;;;;;;;;;6141802;28;20047;-67
2021/07/24 01:14:40;;;;;;;33.35;26.85;;;;;;;;;;6161280;28;20046;-66
2021/07/24 01:17:43;;;;;;;40.03;27.60;;;;;;;;;;6133607;28;20905;-65
2021/07/24 01:20:45;;;;;;;30.75;25.17;;;;;;;;;;6145094;28;20043;-64
2021/07/24 01:23:48;;;;;;;35.15;26.15;;;;;;;;;;6154294;28;20137;-70
2021/07/24 01:26:50;;;;;;;34.33;26.75;;;;;;;;;;6148943;28;20040;-64
2021/07/24 01:29:52;;;;;;;37.58;27.48;;;;;;;;;;6155556;28;20077;-67
2021/07/24 01:32:53;;;;;;;35.65;26.27;;;;;;;;;;6144298;28;20122;-67
2021/07/24 01:35:55;;;;;;;33.25;24.00;;;;;;;;;;6144159;28;21612;-65
2021/07/24 01:38:58;;;;;;;32.83;25.80;;;;;;;;;;6156364;28;20190;-67
2021/07/24 01:41:59;;;;;;;;;;;;;;;;;;6148422;28;20042;-64
2021/07/24 01:45:01;;;;;;;29.35;23.33;;;;;;;;;;6157988;28;20025;-64
2021/07/24 01:48:05;;;;;;;30.00;22.20;;;;;;;;;;6141153;28;20134;-65
2021/07/24 01:54:29;;;;;;;26.08;20.25;;;;;;;;;;6153454;28;20051;-68
2021/07/24 01:57:31;;;;;;;25.38;19.48;;;;;;;;;;6150677;28;20054;-64
2021/07/24 02:00:34;;;;;;;26.67;19.50;;;;;;;;;;6148774;28;20053;-69
2021/07/24 02:03:38;;;;;;;26.55;19.70;;;;;;;;;;6150515;28;26537;-64
2021/07/24 02:06:41;;;;;;;25.27;19.88;;;;;;;;;;6147684;28;20104;-69
2021/07/24 02:09:44;;;;;;;23.88;19.83;;;;;;;;;;6153292;28;20095;-64
2021/07/24 02:12:45;;;;;;;;;;;;;;;;;;6144907;28;20144;-65
2021/07/24 02:15:48;;;;;;;26.88;19.55;;;;;;;;;;6141491;28;19927;-69
2021/07/24 02:18:49;;;;;;;26.70;19.20;;;;;;;;;;6148391;28;20066;-64
2021/07/24 02:21:51;;;;;;;24.25;18.85;;;;;;;;;;6152575;28;20458;-64
2021/07/24 02:24:54;;;;;;;26.23;18.55;;;;;;;;;;6160188;28;20054;-66
2021/07/24 02:27:55;;;;;;;24.98;18.60;;;;;;;;;;6155794;28;20123;-64
2021/07/24 02:30:57;;;;;;;26.17;19.48;;;;;;;;;;6162393;28;20054;-65
2021/07/24 02:33:59;;;;;;;26.02;19.92;;;;;;;;;;6160942;28;20518;-64
2021/07/24 02:37:00;;;;;;;21.60;18.58;;;;;;;;;;6157692;28;20403;-67
2021/07/24 02:40:05;;;;;;;24.08;19.52;;;;;;;;;;6171981;28;20100;-66
2021/07/24 02:43:07;;;;;;;25.13;18.88;;;;;;;;;;6157483;28;20047;-64
2021/07/24 02:46:08;;;;;;;22.20;18.90;;;;;;;;;;6155525;28;20047;-63
2021/07/24 02:49:11;;;;;;;30.30;19.27;;;;;;;;;;6170819;28;20046;-64
2021/07/24 02:52:12;;;;;;;24.80;19.00;;;;;;;;;;6165152;28;20053;-66
2021/07/24 02:55:16;;;;;;;24.48;19.20;;;;;;;;;;6156224;28;20054;-69
2021/07/24 02:58:17;;;;;;;23.83;19.90;;;;;;;;;;6159370;28;20035;-64
2021/07/24 03:01:19;;;;;;;28.70;19.45;;;;;;;;;;6146802;28;20049;-64
2021/07/24 03:04:21;;;;;;;29.77;19.45;;;;;;;;;;6156218;28;20101;-64
2021/07/24 03:07:22;;;;;;;24.00;18.58;;;;;;;;;;6157825;28;20116;-67
2021/07/24 03:10:25;;;;;;;23.08;19.08;;;;;;;;;;6147659;28;20125;-70
2021/07/24 03:13:27;;;;;;;24.42;18.50;;;;;;;;;;6153497;28;20184;-64
2021/07/24 03:16:28;;;;;;;24.83;18.48;;;;;;;;;;6144632;28;20149;-66
2021/07/24 03:19:30;;;;;;;20.98;17.48;;;;;;;;;;6152716;28;20054;-64
2021/07/24 03:22:32;;;;;;;24.05;18.25;;;;;;;;;;6143159;28;20459;-63
2021/07/24 03:25:35;;;;;;;24.10;17.83;;;;;;;;;;6145209;28;20059;-69
2021/07/24 03:28:37;;;;;;;22.35;17.77;;;;;;;;;;6158064;28;20074;-64
2021/07/24 03:31:38;;;;;;;25.90;17.02;;;;;;;;;;6133301;28;20125;-63
2021/07/24 03:34:40;;;;;;;21.73;16.52;;;;;;;;;;6151485;28;20047;-64
2021/07/24 03:37:41;;;;;;;24.85;17.70;;;;;;;;;;6137023;28;20117;-64
2021/07/24 03:40:44;;;;;;;21.63;17.20;;;;;;;;;;6145681;28;20067;-64
2021/07/24 03:43:46;;;;;;;20.73;16.50;;;;;;;;;;6157035;28;20083;-64
2021/07/24 03:46:50;;;;;;;22.25;16.35;;;;;;;;;;6136586;28;20039;-63
2021/07/24 03:49:51;;;;;;;25.42;16.65;;;;;;;;;;6146169;28;20446;-68
2021/07/24 03:52:53;;;;;;;20.83;16.15;;;;;;;;;;6135530;28;20051;-67
2021/07/24 03:55:56;;;;;;;22.25;17.35;;;;;;;;;;6147677;28;20117;-64
2021/07/24 03:58:57;;;;;;;22.23;16.95;;;;;;;;;;6162939;28;20065;-63
2021/07/24 04:01:59;;;;;;;21.40;16.80;;;;;;;;;;6158094;28;20174;-65
2021/07/24 04:05:02;;;;;;;20.02;16.05;;;;;;;;;;6168544;28;20058;-66
2021/07/24 04:08:05;;;;;;;23.35;16.65;;;;;;;;;;6153482;28;20098;-64
2021/07/24 04:11:08;;;;;;;;;;;;;;;;;;6153959;28;20093;-64
2021/07/24 04:14:09;;;;;;;22.58;17.02;;;;;;;;;;6162364;28;19976;-65
2021/07/24 04:17:11;;;;;;;22.63;16.48;;;;;;;;;;6150371;28;20050;-64
2021/07/24 04:20:15;;;;;;;22.10;17.35;;;;;;;;;;6151535;28;20038;-67
2021/07/24 04:23:17;;;;;;;20.02;16.67;;;;;;;;;;6157524;28;20070;-66
2021/07/24 04:26:20;;;;;;;22.65;17.25;;;;;;;;;;6153337;28;20035;-64
2021/07/24 04:29:22;;;;;;;25.13;18.30;;;;;;;;;;6159993;28;20213;-65
2021/07/24 04:32:26;;;;;;;23.98;17.50;;;;;;;;;;6144508;28;20051;-64
2021/07/24 04:35:28;;;;;;;22.13;17.35;;;;;;;;;;6150790;28;20498;-64
2021/07/24 04:38:30;;;;;;;22.80;17.80;;;;;;;;;;6154670;28;20186;-64
2021/07/24 04:41:32;;;;;;;22.10;17.33;;;;;;;;;;6152567;28;20047;-67
2021/07/24 04:44:34;;;;;;;22.50;16.67;;;;;;;;;;6163238;28;20116;-65
2021/07/24 04:47:36;;;;;;;21.67;17.10;;;;;;;;;;6152768;28;20054;-64
2021/07/24 04:50:41;;;;;;;21.83;17.10;;;;;;;;;;6156256;28;20125;-66
2021/07/24 04:53:43;;;;;;;20.65;16.92;;;;;;;;;;6166997;28;20043;-65
2021/07/24 04:56:46;;;;;;;21.70;16.15;;;;;;;;;;6157005;28;20047;-64
2021/07/24 04:59:48;;;;;;;20.98;16.02;;;;;;;;;;6165190;28;20055;-64
2021/07/24 05:02:50;;;;;;;18.83;15.98;;;;;;;;;;6151642;28;20161;-63
2021/07/24 05:05:53;;;;;;;21.60;16.77;;;;;;;;;;6155101;28;20069;-64
2021/07/24 05:08:54;;;;;;;18.80;15.88;;;;;;;;;;6164901;28;20046;-65
2021/07/24 05:11:57;;;;;;;21.52;16.05;;;;;;;;;;6162095;28;20181;-64
2021/07/24 05:14:59;;;;;;;21.48;16.00;;;;;;;;;;6166490;28;20062;-65
2021/07/24 05:18:01;;;;;;;19.48;15.88;;;;;;;;;;6151294;28;20055;-64
2021/07/24 05:21:02;;;;;;;23.13;16.75;;;;;;;;;;6158956;28;20539;-64
2021/07/24 05:24:04;;;;;;;20.50;15.77;;;;;;;;;;6162418;28;20174;-65
2021/07/24 05:27:08;;;;;;;23.08;15.82;;;;;;;;;;6157852;28;20475;-64
2021/07/24 05:30:10;;;;;;;23.45;15.75;;;;;;;;;;6160436;28;20446;-69
2021/07/24 05:33:12;;;;;;;18.95;15.90;;;;;;;;;;6159139;28;20191;-64
2021/07/24 05:36:13;;;;;;;20.17;17.15;;;;;;;;;;6154025;28;20060;-69
2021/07/24 05:39:15;;;;;;;20.83;15.60;;;;;;;;;;6164779;28;20099;-64
2021/07/24 05:42:18;;;;;;;18.75;15.85;;;;;;;;;;6155672;28;20093;-64
2021/07/24 05:45:20;;;;;;;20.73;14.85;;;;;;;;;;6157478;28;20050;-70
2021/07/24 05:48:21;;;;;;;20.38;15.02;;;;;;;;;;6156696;28;20182;-67
2021/07/24 05:51:23;;;;;;;18.45;15.35;;;;;;;;;;6158946;28;20057;-67
2021/07/24 05:54:24;;;;;;;19.30;14.75;;;;;;;;;;6164947;28;20046;-67
2021/07/24 05:57:27;;;;;;;18.05;14.77;;;;;;;;;;6155198;28;20507;-65
2021/07/24 06:00:29;;;;;;;20.67;15.18;;;;;;;;;;6156073;28;20078;-64
2021/07/24 06:03:30;;;;;;;19.83;14.98;;;;;;;;;;6158084;28;20088;-65
2021/07/24 06:06:35;;;;;;;19.15;14.88;;;;;;;;;;6157112;28;20447;-64
2021/07/24 06:09:36;;;;;;;17.30;14.50;;;;;;;;;;6163034;28;22872;-67
2021/07/24 06:12:39;;;;;;;16.05;14.30;;;;;;;;;;6162353;28;20588;-68
2021/07/24 06:15:44;;;;;;;20.55;16.73;;;;;;;;;;6151380;28;20062;-65
2021/07/24 06:18:45;;;;;;;23.38;15.45;;;;;;;;;;6159318;28;20057;-64
2021/07/24 06:21:47;;;;;;;24.38;15.90;;;;;;;;;;6162384;28;20058;-65
2021/07/24 06:24:49;;;;;;;17.77;14.48;;;;;;;;;;6163083;28;20089;-64
2021/07/24 06:27:51;;;;;;;19.33;15.15;;;;;;;;;;6152112;28;20077;-65
2021/07/24 06:30:53;;;;;;;19.23;15.43;;;;;;;;;;6157817;28;20206;-67
2021/07/24 06:33:55;;;;;;;22.88;15.07;;;;;;;;;;6158803;28;20067;-64
2021/07/24 06:36:57;;;;;;;23.58;14.73;;;;;;;;;;6151181;28;20047;-64
2021/07/24 06:39:58;;;;;;;19.13;15.93;;;;;;;;;;6165309;28;20173;-66
2021/07/24 06:43:01;;;;;;;17.45;14.23;;;;;;;;;;6152884;28;20050;-63
2021/07/24 06:46:10;;;;;;;17.55;14.20;;;;;;;;;;6153228;28;20051;-70
2021/07/24 06:49:11;;;;;;;15.80;13.95;;;;;;;;;;6164460;28;20047;-64
2021/07/24 06:52:13;;;;;;;17.40;14.48;;;;;;;;;;6158746;28;20092;-64
2021/07/24 06:55:14;;;;;;;19.52;14.43;;;;;;;;;;6159571;28;20047;-66
2021/07/24 06:58:17;;;;;;;19.95;14.13;;;;;;;;;;6164541;28;20088;-64
2021/07/24 07:01:21;;;;;;;21.10;13.82;;;;;;;;;;6159870;28;20051;-65
2021/07/24 07:04:23;;;;;;;20.80;14.05;;;;;;;;;;6163682;28;20430;-64
2021/07/24 07:07:25;;;;;;;16.85;12.85;;;;;;;;;;6153646;28;20517;-67
2021/07/24 07:10:29;;;;;;;14.90;11.88;;;;;;;;;;6158850;28;20043;-64
2021/07/24 07:13:32;;;;;;;17.55;12.77;;;;;;;;;;6164757;28;20050;-64
2021/07/24 07:16:34;;;;;;;;;;;;;;;;;;6148591;28;20105;-67
2021/07/24 07:19:36;;;;;;;14.82;11.70;;;;;;;;;;6157843;28;20001;-64
2021/07/24 07:22:38;;;;;;;12.93;11.63;;;;;;;;;;6152589;28;20384;-64
2021/07/24 07:25:39;;;;;;;13.25;10.85;;;;;;;;;;6139614;28;20121;-64
2021/07/24 07:28:42;;;;;;;19.48;12.43;;;;;;;;;;6148235;28;20145;-64
2021/07/24 07:31:44;;;;;;;15.70;13.32;;;;;;;;;;6144243;28;20050;-64
2021/07/24 07:34:46;;;;;;;19.60;12.77;;;;;;;;;;6160160;28;20046;-64
2021/07/24 07:37:50;;;;;;;18.48;12.13;;;;;;;;;;6151186;28;20089;-64
2021/07/24 07:40:52;;;;;;;14.70;12.90;;;;;;;;;;6159551;28;20043;-67
2021/07/24 07:43:55;;;;;;;13.82;11.73;;;;;;;;;;6164307;28;20043;-67
2021/07/24 07:46:56;;;;;;;;;;;;;;;;;;6154387;28;20078;-65
2021/07/24 07:49:58;;;;;;;17.25;13.27;;;;;;;;;;6158386;28;19929;-70
2021/07/24 07:52:59;;;;;;;15.20;12.45;;;;;;;;;;6154267;28;20113;-66
2021/07/24 07:56:01;;;;;;;13.95;12.05;;;;;;;;;;6151441;28;20118;-64
2021/07/24 07:59:04;;;;;;;15.00;12.40;;;;;;;;;;6151483;28;20051;-64
2021/07/24 08:02:06;;;;;;;15.80;12.02;;;;;;;;;;6157910;28;20452;-64
2021/07/24 08:05:08;;;;;;;13.88;11.40;;;;;;;;;;6167253;28;20120;-69
2021/07/24 08:08:10;;;;;;;13.70;11.55;;;;;;;;;;6158115;28;20526;-64
2021/07/24 08:11:11;;;;;;;14.05;12.25;;;;;;;;;;6157846;28;20129;-65
2021/07/24 08:14:14;;;;;;;15.77;11.90;;;;;;;;;;6158792;28;20087;-66
2021/07/24 08:17:15;;;;;;;;;;;;;;;;;;6151031;28;20682;-68
2021/07/24 08:20:17;;;;;;;13.80;11.95;;;;;;;;;;6151129;28;20065;-68
2021/07/24 08:23:19;;;;;;;16.10;10.82;;;;;;;;;;6156777;28;20045;-65
2021/07/24 08:26:20;;;;;;;14.15;10.73;;;;;;;;;;6153296;28;20065;-67
2021/07/24 08:29:23;;;;;;;11.55;9.77;;;;;;;;;;6163316;28;20061;-68
2021/07/24 08:32:25;;;;;;;13.15;10.75;;;;;;;;;;6149890;28;20113;-64
2021/07/24 08:35:26;;;;;;;13.97;11.00;;;;;;;;;;6148729;28;20133;-69
2021/07/24 08:38:28;;;;;;;13.60;11.27;;;;;;;;;;6166174;28;20062;-65
2021/07/24 08:41:29;;;;;;;14.57;10.80;;;;;;;;;;6152572;28;20080;-64
2021/07/24 08:44:36;;;;;;;15.27;11.07;;;;;;;;;;6159962;28;20049;-65
2021/07/24 08:47:38;;;;;;;14.93;10.75;;;;;;;;;;6148072;28;20264;-64
2021/07/24 08:50:41;;;;;;;12.52;10.90;;;;;;;;;;6148145;28;20047;-68
2021/07/24 08:53:43;;;;;;;13.23;11.05;;;;;;;;;;6160870;28;20714;-66
2021/07/24 08:56:46;;;;;;;15.52;12.18;;;;;;;;;;6151883;28;20519;-65
2021/07/24 08:59:49;;;;;;;11.73;10.50;;;;;;;;;;6156536;28;20047;-66
2021/07/24 09:02:52;;;;;;;12.35;10.55;;;;;;;;;;6146777;28;20179;-65
2021/07/24 09:05:54;;;;;;;13.75;11.13;;;;;;;;;;6151378;28;20541;-66
2021/07/24 09:08:57;;;;;;;13.40;11.88;;;;;;;;;;6162025;28;20487;-64
2021/07/24 09:11:59;;;;;;;14.45;11.20;;;;;;;;;;6154715;28;20047;-64
2021/07/24 09:15:02;;;;;;;14.82;11.10;;;;;;;;;;6163284;28;20499;-65
2021/07/24 09:18:04;;;;;;;18.08;12.40;;;;;;;;;;6148334;28;21648;-65
2021/07/24 09:21:05;;;;;;;12.85;11.65;;;;;;;;;;6157164;28;20049;-65
2021/07/24 09:24:20;;;;;;;13.98;11.30;;;;;;;;;;6169693;28;20054;-65
2021/07/24 09:27:24;;;;;;;16.75;11.85;;;;;;;;;;6165168;28;20162;-64
2021/07/24 09:30:32;;;;;;;15.20;11.18;;;;;;;;;;6168845;28;20038;-71
2021/07/24 09:33:34;;;;;;;10.75;9.65;;;;;;;;;;6160668;28;20046;-66
2021/07/24 09:36:36;;;;;;;11.63;9.85;;;;;;;;;;6152349;28;20109;-67
2021/07/24 09:39:38;;;;;;;14.13;10.65;;;;;;;;;;6165333;28;20054;-69
2021/07/24 09:42:40;;;;;;;10.98;9.93;;;;;;;;;;6150179;28;20533;-67
2021/07/24 09:45:42;;;;;;;13.85;10.43;;;;;;;;;;6152170;28;20065;-65
2021/07/24 09:48:45;;;;;;;13.38;11.98;;;;;;;;;;6159414;28;20047;-66
2021/07/24 09:51:48;;;;;;;13.57;11.27;;;;;;;;;;6147001;28;20180;-65
2021/07/24 09:54:50;;;;;;;12.65;10.07;;;;;;;;;;6156577;28;20053;-66
2021/07/24 09:57:52;;;;;;;18.95;10.30;;;;;;;;;;6155476;28;20097;-65
2021/07/24 10:01:01;;;;;;;13.65;9.63;;;;;;;;;;6149531;28;20059;-67
2021/07/24 10:04:04;;;;;;;12.07;10.73;;;;;;;;;;6154734;28;20115;-66
2021/07/24 10:07:07;;;;;;;13.40;12.00;;;;;;;;;;6155073;28;20054;-66
2021/07/24 10:10:09;;;;;;;13.75;11.40;;;;;;;;;;6159648;28;20074;-69
2021/07/24 10:13:12;;;;;;;11.40;10.30;;;;;;;;;;6160227;28;20134;-66
2021/07/24 10:16:15;;;;;;;10.52;9.40;;;;;;;;;;6152451;28;20059;-65
2021/07/24 10:19:18;;;;;;;10.40;8.70;;;;;;;;;;6162877;28;20046;-67
2021/07/24 10:22:20;;;;;;;10.50;8.63;;;;;;;;;;6155048;28;20055;-65
2021/07/24 10:25:22;;;;;;;11.50;9.30;;;;;;;;;;6158240;28;20113;-71
2021/07/24 10:28:27;;;;;;;9.23;8.23;;;;;;;;;;6165820;28;20059;-65
2021/07/24 10:31:34;;;;;;;11.75;8.77;;;;;;;;;;6162757;28;20182;-66
2021/07/24 10:34:38;;;;;;;12.77;9.68;;;;;;;;;;6172620;28;20042;-65
2021/07/24 10:37:42;;;;;;;13.20;9.75;;;;;;;;;;6165041;28;20050;-65
2021/07/24 10:40:44;;;;;;;11.38;8.05;;;;;;;;;;6164783;28;20058;-66
2021/07/24 10:43:58;;;;;;;;;;;;;;;;;;6172601;28;20189;-66
2021/07/24 10:47:10;;;;;;;12.32;9.25;;;;;;;;;;6160532;28;19958;-66
2021/07/24 10:50:12;;;;;;;11.75;10.55;;;;;;;;;;6164392;28;20412;-71
2021/07/24 10:53:13;;;;;;;;;;;;;;;;;;6169148;28;20606;-65
2021/07/24 10:56:35;;;;;;;12.23;9.13;;;;;;;;;;6164907;28;19922;-65
2021/07/24 10:59:37;;;;;;;12.50;11.25;;;;;;;;;;6173935;28;20182;-65
2021/07/24 11:02:46;;;;;;;;;;;;;;;;;;6158852;28;20515;-67
2021/07/24 11:05:47;;;;;;;11.20;9.82;;;;;;;;;;6161678;28;19929;-66
2021/07/24 11:09:02;;;;;;;;;;;;;;;;;;6173321;28;20127;-65
2021/07/24 11:12:08;;;;;;;13.90;9.98;;;;;;;;;;6164464;28;19922;-65
2021/07/24 11:15:11;;;;;;;13.50;10.95;;;;;;;;;;6164262;28;20612;-71
2021/07/24 11:18:24;;;;;;;11.27;9.38;;;;;;;;;;6156122;28;20035;-66
2021/07/24 11:21:55;;;;;;;9.95;8.77;;;;;;;;;;6153467;28;20450;-65
2021/07/24 11:25:31;;;;;;;9.70;8.80;;;;;;;;;;6141769;28;20484;-65
2021/07/24 11:28:32;;;;;;;9.85;8.85;;;;;;;;;;6161810;28;20055;-65
2021/07/24 11:31:34;;;;;;;9.77;8.57;;;;;;;;;;6150456;28;20113;-68
2021/07/24 11:34:37;;;;;;;11.32;9.63;;;;;;;;;;6163773;28;20101;-65
2021/07/24 11:37:40;;;;;;;11.13;9.15;;;;;;;;;;6152748;28;20564;-65
2021/07/24 11:40:43;;;;;;;10.05;9.00;;;;;;;;;;6162287;28;20514;-66
2021/07/24 11:43:44;;;;;;;10.57;8.70;;;;;;;;;;6166033;28;20178;-71
2021/07/24 11:46:55;;;;;;;10.82;7.97;;;;;;;;;;6152473;28;20514;-66
2021/07/24 11:50:15;;;;;;;10.02;9.00;;;;;;;;;;6158156;28;20047;-70
2021/07/24 11:53:19;;;;;;;10.63;8.77;;;;;;;;;;6143240;29;20186;-67
2021/07/24 11:56:21;;;;;;;12.82;9.57;;;;;;;;;;6141197;29;20416;-65
2021/07/24 11:59:23;;;;;;;9.85;8.93;;;;;;;;;;6150757;28;20063;-66
2021/07/24 12:02:24;;;;;;;12.68;9.65;;;;;;;;;;6157099;28;20054;-66
2021/07/24 12:05:27;;;;;;;12.95;9.35;;;;;;;;;;6162030;28;20050;-68
2021/07/24 12:08:30;;;;;;;11.52;10.27;;;;;;;;;;6170164;28;20057;-66
2021/07/24 12:11:32;;;;;;;17.90;9.07;;;;;;;;;;6158132;28;20047;-66
2021/07/24 12:14:34;;;;;;;11.90;10.73;;;;;;;;;;6164164;28;20134;-65
2021/07/24 12:17:35;;;;;;;12.15;9.38;;;;;;;;;;6146218;28;20090;-65
2021/07/24 12:20:38;;;;;;;11.65;9.25;;;;;;;;;;6150819;28;20510;-65
2021/07/24 12:23:44;;;;;;;12.55;9.07;;;;;;;;;;6160690;28;20053;-65
2021/07/24 12:26:45;;;;;;;13.00;9.38;;;;;;;;;;6157911;28;20050;-65
2021/07/24 12:29:51;;;;;;;9.82;8.73;;;;;;;;;;6169299;28;20054;-66
2021/07/24 12:32:53;;;;;;;11.27;10.20;;;;;;;;;;6147875;28;20050;-65
2021/07/24 12:36:01;;;;;;;11.85;9.40;;;;;;;;;;6150630;28;20055;-66
2021/07/24 12:39:17;;;;;;;10.50;8.55;;;;;;;;;;6160753;28;20051;-65
2021/07/24 12:42:29;;;;;;;12.10;9.38;;;;;;;;;;6156068;28;20495;-67
2021/07/24 12:45:32;;;;;;;10.98;9.52;;;;;;;;;;6158822;28;20563;-68
2021/07/24 12:48:41;;;;;;;11.52;9.27;;;;;;;;;;6157527;28;20047;-66
2021/07/24 12:51:43;;;;;;;10.65;9.15;;;;;;;;;;6150742;28;20195;-66
2021/07/24 12:54:59;;;;;;;13.18;8.70;;;;;;;;;;6158508;28;20467;-65
2021/07/24 12:58:01;;;;;;;11.52;9.27;;;;;;;;;;6151440;28;22997;-67
2021/07/24 13:01:15;;;;;;;15.15;9.77;;;;;;;;;;6149519;28;20097;-68
2021/07/24 13:04:17;;;;;;;10.75;8.90;;;;;;;;;;6162188;28;20049;-66
2021/07/24 13:07:23;;;;;;;10.82;9.23;;;;;;;;;;6160547;28;20514;-66
2021/07/24 13:10:26;;;;;;;14.27;8.75;;;;;;;;;;6158819;28;20054;-71
2021/07/24 13:13:28;;;;;;;12.20;8.77;;;;;;;;;;6165548;28;20042;-66
2021/07/24 13:16:32;;;;;;;10.68;8.63;;;;;;;;;;6155843;28;20046;-71
2021/07/24 13:19:33;;;;;;;11.48;9.48;;;;;;;;;;6162450;28;20069;-65
2021/07/24 13:22:38;;;;;;;12.02;10.23;;;;;;;;;;6151869;28;20051;-65
2021/07/24 13:29:00;;;;;;;9.88;8.55;;;;;;;;;;6132060;28;20042;-65
2021/07/24 13:32:02;;;;;;;13.13;10.40;;;;;;;;;;6152777;28;20043;-65
2021/07/24 13:35:05;;;;;;;14.98;10.60;;;;;;;;;;6164984;28;20091;-65
2021/07/24 13:38:07;;;;;;;12.13;9.65;;;;;;;;;;6159070;28;20189;-65
2021/07/24 13:41:09;;;;;;;11.77;9.70;;;;;;;;;;6155067;28;20144;-70
2021/07/24 13:44:11;;;;;;;13.52;8.82;;;;;;;;;;6169246;28;20234;-65
2021/07/24 13:47:12;;;;;;;9.60;8.60;;;;;;;;;;6152777;28;20430;-66
2021/07/24 13:50:14;;;;;;;11.73;9.70;;;;;;;;;;6160135;28;20047;-68
2021/07/24 13:53:17;;;;;;;11.18;9.15;;;;;;;;;;6158284;28;20079;-67
2021/07/24 13:56:19;;;;;;;10.25;9.25;;;;;;;;;;6160684;28;20146;-66
2021/07/24 13:59:20;;;;;;;10.05;8.93;;;;;;;;;;6161743;28;20051;-66
2021/07/24 14:02:22;;;;;;;10.85;9.02;;;;;;;;;;6150846;28;20105;-66
2021/07/24 14:05:23;;;;;;;10.18;8.73;;;;;;;;;;6151653;28;20055;-68
2021/07/24 14:08:26;;;;;;;15.15;9.93;;;;;;;;;;6160995;28;20128;-65
2021/07/24 14:11:28;;;;;;;11.45;8.70;;;;;;;;;;6156047;28;20587;-66
2021/07/24 14:14:30;;;;;;;11.48;9.23;;;;;;;;;;6161912;28;20130;-65
2021/07/24 14:17:31;;;;;;;11.25;9.38;;;;;;;;;;6145707;28;20488;-65
2021/07/24 14:20:33;;;;;;;11.93;8.37;;;;;;;;;;6154376;28;20089;-68
2021/07/24 14:23:36;;;;;;;12.33;9.47;;;;;;;;;;6165362;28;20191;-67
2021/07/24 14:26:38;;;;;;;11.10;9.15;;;;;;;;;;6153520;28;20616;-66
2021/07/24 14:29:39;;;;;;;;;;;;;;;;;;6165472;28;20124;-64
2021/07/24 14:32:41;;;;;;;17.48;8.98;;;;;;;;;;6147290;28;19960;-68
2021/07/24 14:35:42;;;;;;;11.23;8.00;;;;;;;;;;6156076;28;20515;-65
2021/07/24 14:38:45;;;;;;;11.13;8.80;;;;;;;;;;6167419;28;20074;-64
2021/07/24 14:41:49;;;;;;;12.13;9.13;;;;;;;;;;6153691;28;20051;-64
2021/07/24 14:44:50;;;;;;;11.13;9.13;;;;;;;;;;6165936;28;20050;-65
2021/07/24 14:47:53;;;;;;;13.07;8.67;;;;;;;;;;6149141;28;20050;-65
2021/07/24 14:50:54;;;;;;;11.60;8.80;;;;;;;;;;6153161;28;20495;-66
2021/07/24 14:53:57;;;;;;;10.10;9.07;;;;;;;;;;6162764;28;20050;-67
2021/07/24 14:56:59;;;;;;;14.27;9.77;;;;;;;;;;6156766;28;21066;-67
2021/07/24 15:00:00;;;;;;;17.05;9.73;;;;;;;;;;6163591;28;20499;-65
2021/07/24 15:03:02;;;;;;;11.80;9.40;;;;;;;;;;6144583;28;20692;-69
2021/07/24 15:06:05;;;;;;;14.30;10.32;;;;;;;;;;6151870;28;20185;-67
2021/07/24 15:09:07;;;;;;;;;;;;;;;;;;6167363;28;20198;-64
2021/07/24 15:12:09;;;;;;;19.08;10.95;;;;;;;;;;6154293;28;19952;-66
2021/07/24 15:15:11;;;;;;;13.75;10.55;;;;;;;;;;6159478;28;20177;-70
2021/07/24 15:18:13;;;;;;;19.80;11.63;;;;;;;;;;6151297;28;20047;-66
2021/07/24 15:21:16;;;;;;;18.70;11.55;;;;;;;;;;6151940;28;20437;-64
2021/07/24 15:24:19;;;;;;;13.93;10.95;;;;;;;;;;6159485;28;20101;-67
2021/07/24 15:27:20;;;;;;;16.50;11.52;;;;;;;;;;6152727;28;20398;-64
2021/07/24 15:30:22;;;;;;;19.90;13.70;;;;;;;;;;6166306;28;20058;-70
2021/07/24 15:33:26;;;;;;;16.30;11.77;;;;;;;;;;6153213;28;20133;-68
2021/07/24 15:36:28;;;;;;;16.35;11.68;;;;;;;;;;6155726;28;20038;-64
2021/07/24 15:39:33;;;;;;;15.52;11.35;;;;;;;;;;6163861;28;20929;-64
2021/07/24 15:42:34;;;;;;;15.82;10.93;;;;;;;;;;6160807;28;20126;-66
2021/07/24 15:45:36;;;;;;;13.63;10.95;;;;;;;;;;6154265;28;20147;-67
2021/07/24 15:48:37;;;;;;;14.90;11.75;;;;;;;;;;6158439;28;20043;-65
2021/07/24 15:51:39;;;;;;;14.77;10.82;;;;;;;;;;6154290;28;20050;-66
2021/07/24 15:54:42;;;;;;;14.00;11.50;;;;;;;;;;6164904;28;20043;-65
2021/07/24 15:57:44;;;;;;;13.00;10.35;;;;;;;;;;6154946;28;20447;-68
2021/07/24 16:00:45;;;;;;;14.63;10.55;;;;;;;;;;6151715;28;20130;-67
2021/07/24 16:03:47;;;;;;;15.90;10.35;;;;;;;;;;6166646;28;20046;-66
2021/07/24 16:06:48;;;;;;;11.18;9.88;;;;;;;;;;6161310;28;20062;-67
2021/07/24 16:09:51;;;;;;;17.15;10.20;;;;;;;;;;6159507;28;20051;-64
2021/07/24 16:12:53;;;;;;;12.02;9.93;;;;;;;;;;6149936;28;20051;-64
2021/07/24 16:15:54;;;;;;;11.65;10.07;;;;;;;;;;6152852;28;20422;-65
2021/07/24 16:18:56;;;;;;;11.77;10.15;;;;;;;;;;6157139;28;20050;-66
2021/07/24 16:21:58;;;;;;;14.68;9.98;;;;;;;;;;6151281;28;20067;-65
2021/07/24 16:25:01;;;;;;;12.77;10.30;;;;;;;;;;6159725;28;20554;-65
2021/07/24 16:28:02;;;;;;;10.77;9.07;;;;;;;;;;6153746;28;20039;-66
2021/07/24 16:31:04;;;;;;;13.15;9.50;;;;;;;;;;6149898;28;20074;-69
2021/07/24 16:34:05;;;;;;;14.33;9.87;;;;;;;;;;6161543;28;20479;-65
2021/07/24 16:37:07;;;;;;;12.07;9.57;;;;;;;;;;6161988;28;20057;-64
2021/07/24 16:40:12;;;;;;;11.68;9.85;;;;;;;;;;6162653;28;20049;-71
2021/07/24 16:43:14;;;;;;;14.60;9.30;;;;;;;;;;6167267;28;20841;-69
2021/07/24 16:46:16;;;;;;;15.45;9.55;;;;;;;;;;6158212;28;20495;-65
2021/07/24 16:49:17;;;;;;;12.88;9.73;;;;;;;;;;6165505;28;20042;-64
2021/07/24 16:52:19;;;;;;;15.40;10.07;;;;;;;;;;6159294;28;20547;-64
2021/07/24 16:55:22;;;;;;;12.45;8.95;;;;;;;;;;6164647;28;20133;-70
2021/07/24 16:58:23;;;;;;;10.57;8.80;;;;;;;;;;6165827;28;21071;-64
2021/07/24 17:01:25;;;;;;;11.32;9.70;;;;;;;;;;6160783;28;20047;-64
2021/07/24 17:04:26;;;;;;;10.95;9.55;;;;;;;;;;6172048;28;20126;-64
2021/07/24 17:07:28;;;;;;;17.42;10.88;;;;;;;;;;6160749;28;20209;-64
2021/07/24 17:10:31;;;;;;;14.63;9.73;;;;;;;;;;6164953;28;20042;-70
2021/07/24 17:13:35;;;;;;;11.05;9.48;;;;;;;;;;6166270;28;20145;-67
2021/07/24 17:16:36;;;;;;;11.85;9.52;;;;;;;;;;6156641;28;20050;-65
2021/07/24 17:19:38;;;;;;;10.77;9.43;;;;;;;;;;6169446;28;20527;-65
2021/07/24 17:22:39;;;;;;;14.35;10.40;;;;;;;;;;6157926;28;20050;-64
2021/07/24 17:25:42;;;;;;;12.85;10.23;;;;;;;;;;6154495;28;20710;-64
2021/07/24 17:28:44;;;;;;;13.65;9.88;;;;;;;;;;6170214;28;20050;-65
2021/07/24 17:31:45;;;;;;;12.63;10.27;;;;;;;;;;6151595;28;20476;-64
2021/07/24 17:34:47;;;;;;;16.75;10.10;;;;;;;;;;6165675;28;20108;-64
2021/07/24 17:37:49;;;;;;;14.88;10.40;;;;;;;;;;6159299;28;20181;-64
2021/07/24 17:40:51;;;;;;;11.32;10.00;;;;;;;;;;6162256;28;20090;-65
2021/07/24 17:43:53;;;;;;;13.57;10.27;;;;;;;;;;6168478;28;20186;-65
2021/07/24 17:46:54;;;;;;;16.20;12.18;;;;;;;;;;6155344;28;20109;-66
2021/07/24 17:49:56;;;;;;;15.15;11.07;;;;;;;;;;6163945;28;20496;-70
2021/07/24 17:53:00;;;;;;;13.50;10.73;;;;;;;;;;6152220;28;20063;-64
2021/07/24 17:56:03;;;;;;;15.18;11.88;;;;;;;;;;6157532;28;20178;-64
2021/07/24 17:59:04;;;;;;;15.13;11.00;;;;;;;;;;6164085;28;20054;-67
2021/07/24 18:02:06;;;;;;;15.70;12.00;;;;;;;;;;6154131;28;20167;-66